Alvin, Texas
Current Conditions -  °F | °C
As of 10:53 AM on Friday 31 Oct 2014 (Local Time) from KLVJ Reporting Station
Clear Clear  
Wind Chill: 74°   Ceiling: Unl
Heat Index: 74°   Visibility: 10mi
Dew Point: 45°   Wind: 13mph
Humidity: 35%   Direction: 30°NNE
Pressure: 30.2"   Gusts: 20mph
Location:  29.42°N, 95.24°W
Report Text: KLVJ 311553Z AUTO 03011G17KT 10SM CLR 23/07 A3020 RMK AO2 SLP226 T02330072
Loading
Personal Weather Stations






























Interactive Weather Map
Tropical Storm Tracking
New forecast layout! Learn more

10-Day Weather Forecast

Advertisements
Track Severe Weather on mobile